createdAt,value
2023-05-21T00:00:02.357Z,94.60
2023-05-21T00:02:05.821Z,94.80
2023-05-21T00:04:08.154Z,94.80
2023-05-21T00:06:10.116Z,94.90
2023-05-21T00:08:12.126Z,94.90
2023-05-21T00:10:14.200Z,94.90
2023-05-21T00:12:16.363Z,95.30
2023-05-21T00:14:18.416Z,95.10
2023-05-21T00:16:20.983Z,95.00
2023-05-21T00:18:25.484Z,95.10
2023-05-21T00:20:29.229Z,95.10
2023-05-21T00:22:33.367Z,95.20
2023-05-21T00:24:35.889Z,95.30
2023-05-21T00:26:38.194Z,95.30
2023-05-21T00:28:40.245Z,95.40
2023-05-21T00:30:43.101Z,95.30
2023-05-21T00:32:45.157Z,95.50
2023-05-21T00:34:48.584Z,95.50
2023-05-21T00:36:50.644Z,95.50
2023-05-21T00:38:52.667Z,95.60
2023-05-21T00:40:54.627Z,95.50
2023-05-21T00:42:57.336Z,95.60
2023-05-21T00:44:59.468Z,95.70
2023-05-21T00:47:02.204Z,95.60
2023-05-21T00:49:04.530Z,95.70
2023-05-21T00:51:08.033Z,95.90
2023-05-21T00:53:10.886Z,95.90
2023-05-21T00:55:13.161Z,95.80
2023-05-21T00:57:16.404Z,95.90
2023-05-21T00:59:18.694Z,95.90
2023-05-21T01:01:21.090Z,96.00
2023-05-21T01:03:23.633Z,96.00
2023-05-21T01:05:25.936Z,96.00
2023-05-21T01:07:29.844Z,95.90
2023-05-21T01:09:31.938Z,96.10
2023-05-21T01:11:39.793Z,96.10
2023-05-21T01:13:42.976Z,96.10
2023-05-21T01:15:45.986Z,96.20
2023-05-21T01:17:48.906Z,96.30
2023-05-21T01:19:52.740Z,96.20
2023-05-21T01:22:04.450Z,96.30
2023-05-21T01:24:07.955Z,96.40
2023-05-21T01:26:12.939Z,96.40
2023-05-21T01:28:15.394Z,96.50
2023-05-21T01:30:19.213Z,96.50
2023-05-21T01:32:29.247Z,96.50
2023-05-21T01:34:37.382Z,96.70
2023-05-21T01:36:49.381Z,96.70
2023-05-21T01:38:57.684Z,96.70
2023-05-21T01:41:07.125Z,96.80
2023-05-21T01:43:10.823Z,96.90
2023-05-21T01:45:15.620Z,97.00
2023-05-21T01:47:18.913Z,97.00
2023-05-21T01:49:24.825Z,97.20
2023-05-21T01:51:28.012Z,97.20
2023-05-21T01:53:30.139Z,97.20
2023-05-21T01:55:32.945Z,97.30
2023-05-21T01:57:36.470Z,97.30
2023-05-21T01:59:38.843Z,97.30
2023-05-21T02:01:41.226Z,97.30
2023-05-21T02:03:43.645Z,97.40
2023-05-21T02:05:46.128Z,97.40
2023-05-21T02:07:50.948Z,97.40
2023-05-21T02:09:53.167Z,97.50
2023-05-21T02:11:56.794Z,97.60
2023-05-21T02:14:00.573Z,97.60
2023-05-21T02:16:02.702Z,97.60
2023-05-21T02:18:04.882Z,97.80
2023-05-21T02:20:14.528Z,97.70
2023-05-21T02:22:16.730Z,97.80
2023-05-21T02:24:18.809Z,97.90
2023-05-21T02:26:22.339Z,97.90
2023-05-21T02:28:24.436Z,98.00
2023-05-21T02:30:27.761Z,97.90
2023-05-21T02:32:31.783Z,98.00
2023-05-21T02:34:36.506Z,98.10
2023-05-21T02:36:38.536Z,98.10
2023-05-21T02:38:43.668Z,98.20
2023-05-21T02:40:45.903Z,98.30
2023-05-21T02:42:47.954Z,98.40
2023-05-21T02:44:51.000Z,98.20
2023-05-21T02:46:54.343Z,98.40
2023-05-21T02:48:56.407Z,98.30
2023-05-21T02:50:58.841Z,98.50
2023-05-21T02:53:01.185Z,98.30
2023-05-21T02:55:03.466Z,98.50
2023-05-21T02:57:05.982Z,98.60
2023-05-21T02:59:08.022Z,98.60
2023-05-21T03:01:10.173Z,98.70
2023-05-21T03:03:13.540Z,98.70
2023-05-21T03:05:15.919Z,98.80
2023-05-21T03:07:19.057Z,99.00
2023-05-21T03:09:22.223Z,99.20
2023-05-21T03:11:24.262Z,99.30
2023-05-21T03:13:26.415Z,99.40
2023-05-21T03:15:33.246Z,99.50
2023-05-21T03:17:35.368Z,99.40
2023-05-21T03:19:38.861Z,99.40
2023-05-21T03:21:41.765Z,99.50
2023-05-21T03:23:43.924Z,99.50
2023-05-21T03:25:46.269Z,99.50
2023-05-21T03:27:48.363Z,99.60
2023-05-21T03:29:50.432Z,99.60
2023-05-21T03:31:53.924Z,99.70
2023-05-21T03:33:56.164Z,99.90
2023-05-21T03:35:59.522Z,99.80
2023-05-21T03:38:01.838Z,99.90
2023-05-21T03:40:04.806Z,99.90
2023-05-21T03:42:06.920Z,99.90
2023-05-21T03:44:09.209Z,99.90
2023-05-21T03:46:11.222Z,99.90
2023-05-21T03:48:13.332Z,99.90
2023-05-21T03:50:15.671Z,99.90
2023-05-21T03:52:19.003Z,99.80
2023-05-21T03:54:21.264Z,99.90
2023-05-21T03:56:23.562Z,99.90
2023-05-21T03:58:26.853Z,99.90
2023-05-21T04:00:28.962Z,99.90
2023-05-21T04:02:31.794Z,99.90
2023-05-21T04:04:33.956Z,99.90
2023-05-21T04:06:36.816Z,99.90
2023-05-21T04:08:40.246Z,99.90
2023-05-21T04:10:42.574Z,99.80
2023-05-21T04:12:44.646Z,99.90
2023-05-21T04:14:46.864Z,99.90
2023-05-21T04:16:49.217Z,99.90
2023-05-21T04:18:52.290Z,99.90
2023-05-21T04:20:54.488Z,99.90
2023-05-21T04:22:56.855Z,99.90
2023-05-21T04:25:00.564Z,99.90
2023-05-21T04:27:02.511Z,99.90
2023-05-21T04:29:05.075Z,99.90
2023-05-21T04:31:08.631Z,99.80
2023-05-21T04:33:10.800Z,99.70
2023-05-21T04:35:15.179Z,99.80
2023-05-21T04:37:20.411Z,99.70
2023-05-21T04:39:22.701Z,99.80
2023-05-21T04:41:26.171Z,99.80
2023-05-21T04:43:28.281Z,99.70
2023-05-21T04:45:30.890Z,99.70
2023-05-21T04:47:35.415Z,99.70
2023-05-21T04:49:37.849Z,99.70
2023-05-21T04:51:39.946Z,99.80
2023-05-21T04:53:42.577Z,99.70
2023-05-21T04:55:44.601Z,99.60
2023-05-21T04:57:48.254Z,99.60
2023-05-21T04:59:50.456Z,99.50
2023-05-21T05:01:52.703Z,99.40
2023-05-21T05:03:54.782Z,99.50
2023-05-21T05:05:56.868Z,99.30
2023-05-21T05:07:58.905Z,99.20
2023-05-21T05:10:00.997Z,99.10
2023-05-21T05:12:03.203Z,99.20
2023-05-21T05:14:07.499Z,99.20
2023-05-21T05:16:11.272Z,99.20
2023-05-21T05:18:13.440Z,99.40
2023-05-21T05:20:15.666Z,99.10
2023-05-21T05:22:17.691Z,99.00
2023-05-21T05:24:19.711Z,98.90
2023-05-21T05:26:22.244Z,98.80
2023-05-21T05:28:24.314Z,98.80
2023-05-21T05:30:27.730Z,98.80
2023-05-21T05:32:29.731Z,98.70
2023-05-21T05:34:32.448Z,98.60
2023-05-21T05:36:34.452Z,98.50
2023-05-21T05:38:36.484Z,98.40
2023-05-21T05:40:38.465Z,98.20
2023-05-21T05:42:40.650Z,98.40
2023-05-21T05:44:42.876Z,98.40
2023-05-21T05:46:46.405Z,98.20
2023-05-21T05:48:48.432Z,98.20
2023-05-21T05:50:54.501Z,97.90
2023-05-21T05:52:56.530Z,97.90
2023-05-21T05:54:58.563Z,98.00
2023-05-21T05:57:00.828Z,97.90
2023-05-21T05:59:02.906Z,97.80
2023-05-21T06:01:05.028Z,97.60
2023-05-21T06:03:08.776Z,97.50
2023-05-21T06:05:11.019Z,97.60
2023-05-21T06:07:13.030Z,97.30
2023-05-21T06:09:15.251Z,97.10
2023-05-21T06:11:18.936Z,97.20
2023-05-21T06:13:21.073Z,97.00
2023-05-21T06:15:23.060Z,97.10
2023-05-21T06:17:25.221Z,97.20
2023-05-21T06:19:28.933Z,97.20
2023-05-21T06:21:31.266Z,97.10
2023-05-21T06:23:35.465Z,97.40
2023-05-21T06:25:38.435Z,97.20
2023-05-21T06:27:40.645Z,97.10
2023-05-21T06:29:42.663Z,96.90
2023-05-21T06:31:44.762Z,97.10
2023-05-21T06:33:46.877Z,96.90
2023-05-21T06:35:50.575Z,96.90
2023-05-21T06:37:52.859Z,96.90
2023-05-21T06:39:54.870Z,96.70
2023-05-21T06:41:56.890Z,96.60
2023-05-21T06:43:59.020Z,96.70
2023-05-21T06:46:01.439Z,96.60
2023-05-21T06:48:03.974Z,96.40
2023-05-21T06:50:06.521Z,96.30
2023-05-21T06:52:10.182Z,96.10
2023-05-21T06:54:13.487Z,96.30
2023-05-21T06:56:15.698Z,96.00
2023-05-21T06:58:17.683Z,96.00
2023-05-21T07:00:19.670Z,96.10
2023-05-21T07:02:21.800Z,95.90
2023-05-21T07:04:25.450Z,96.00
2023-05-21T07:06:27.527Z,95.90
2023-05-21T07:08:31.359Z,96.00
2023-05-21T07:10:33.457Z,95.60
2023-05-21T07:12:35.679Z,95.30
2023-05-21T07:14:37.705Z,95.40
2023-05-21T07:16:39.693Z,94.90
2023-05-21T07:18:41.820Z,94.90
2023-05-21T07:20:43.948Z,95.00
2023-05-21T07:22:46.175Z,94.90
2023-05-21T07:24:49.548Z,94.80
2023-05-21T07:26:51.598Z,94.60
2023-05-21T07:28:53.605Z,94.30
2023-05-21T07:30:56.037Z,94.30
2023-05-21T07:32:58.225Z,94.30
2023-05-21T07:35:03.848Z,94.50
2023-05-21T07:37:05.821Z,94.50
2023-05-21T07:39:07.951Z,94.50
2023-05-21T07:41:11.634Z,94.50
2023-05-21T07:43:13.671Z,94.30
2023-05-21T07:45:15.799Z,94.00
2023-05-21T07:47:17.932Z,94.00
2023-05-21T07:49:20.038Z,93.80
2023-05-21T07:51:23.509Z,93.90
2023-05-21T07:53:25.548Z,93.60
2023-05-21T07:55:27.587Z,93.90
2023-05-21T07:57:31.024Z,93.60
2023-05-21T07:59:33.695Z,93.60
2023-05-21T08:01:37.387Z,93.60
2023-05-21T08:03:39.561Z,93.80
2023-05-21T08:05:41.921Z,93.50
2023-05-21T08:07:44.409Z,93.40
2023-05-21T08:09:47.112Z,93.20
2023-05-21T08:11:49.243Z,93.20
2023-05-21T08:13:52.687Z,93.00
2023-05-21T08:15:54.933Z,93.30
2023-05-21T08:17:56.967Z,93.00
2023-05-21T08:19:59.068Z,93.10
2023-05-21T08:22:01.710Z,92.90
2023-05-21T08:24:03.944Z,92.90
2023-05-21T08:26:06.862Z,93.00
2023-05-21T08:28:08.857Z,92.60
2023-05-21T08:30:13.260Z,92.40
2023-05-21T08:32:15.276Z,92.40
2023-05-21T08:34:18.673Z,92.70
2023-05-21T08:36:21.321Z,92.50
2023-05-21T08:38:23.352Z,92.60
2023-05-21T08:40:25.522Z,92.50
2023-05-21T08:42:37.307Z,92.10
2023-05-21T08:44:48.210Z,91.90
2023-05-21T08:46:52.282Z,91.60
2023-05-21T08:48:55.760Z,91.50
2023-05-21T08:50:59.656Z,91.10
2023-05-21T08:53:05.515Z,91.20
2023-05-21T08:55:12.572Z,91.40
2023-05-21T08:57:15.910Z,91.10
2023-05-21T08:59:19.741Z,91.30
2023-05-21T09:01:24.150Z,91.10
2023-05-21T09:03:31.877Z,90.70
2023-05-21T09:05:34.743Z,90.70
2023-05-21T09:07:42.805Z,90.70
2023-05-21T09:09:51.573Z,90.70
2023-05-21T09:11:53.759Z,90.90
2023-05-21T09:13:57.899Z,90.80
2023-05-21T09:16:00.150Z,90.60
2023-05-21T09:18:02.535Z,90.70
2023-05-21T09:20:15.124Z,90.90
2023-05-21T09:22:17.323Z,91.10
2023-05-21T09:24:22.930Z,91.00
2023-05-21T09:26:25.733Z,91.20
2023-05-21T09:28:27.808Z,91.30
2023-05-21T09:30:31.837Z,91.40
2023-05-21T09:32:35.474Z,91.20
2023-05-21T09:34:37.501Z,91.10
2023-05-21T09:36:41.058Z,91.10
2023-05-21T09:38:44.878Z,91.20
2023-05-21T09:40:46.972Z,90.80
2023-05-21T09:42:50.480Z,91.10
2023-05-21T09:44:53.224Z,90.80
2023-05-21T09:46:58.919Z,90.80
2023-05-21T09:49:00.926Z,91.00
2023-05-21T09:51:14.623Z,90.90
2023-05-21T09:53:17.954Z,90.80
2023-05-21T09:55:23.451Z,90.80
2023-05-21T09:57:26.487Z,90.70
2023-05-21T09:59:36.582Z,90.70
2023-05-21T10:01:38.862Z,90.50
2023-05-21T10:03:42.897Z,90.70
2023-05-21T10:05:45.108Z,90.50
2023-05-21T10:07:51.280Z,90.30
2023-05-21T10:09:57.845Z,90.40
2023-05-21T10:12:00.279Z,90.40
2023-05-21T10:14:07.346Z,90.40
2023-05-21T10:16:09.812Z,90.30
2023-05-21T10:18:13.687Z,90.00
2023-05-21T10:20:17.424Z,90.10
2023-05-21T10:22:20.028Z,90.10
2023-05-21T10:24:23.920Z,89.70
2023-05-21T10:26:27.960Z,89.10
2023-05-21T10:28:31.137Z,89.30
2023-05-21T10:30:34.541Z,89.10
2023-05-21T10:32:36.831Z,89.50
2023-05-21T10:34:39.088Z,89.30
2023-05-21T10:36:41.710Z,89.20
2023-05-21T10:38:44.621Z,89.70
2023-05-21T10:40:47.733Z,90.10
2023-05-21T10:43:13.387Z,89.30
2023-05-21T10:45:23.644Z,88.50
2023-05-21T10:48:03.324Z,88.90
2023-05-21T10:50:44.486Z,88.70
2023-05-21T10:53:00.744Z,87.50
2023-05-21T10:55:13.924Z,87.10
2023-05-21T10:57:32.789Z,88.40
2023-05-21T10:59:42.299Z,87.60
2023-05-21T11:01:45.372Z,88.20
2023-05-21T11:03:48.722Z,88.00
2023-05-21T11:05:55.379Z,87.40
2023-05-21T11:07:57.842Z,87.80
2023-05-21T11:10:30.267Z,88.00
2023-05-21T11:12:34.867Z,86.70
2023-05-21T11:14:40.275Z,86.90
2023-05-21T11:16:46.849Z,87.10
2023-05-21T11:18:59.004Z,88.00
2023-05-21T11:21:04.653Z,88.20
2023-05-21T11:23:06.687Z,87.10
2023-05-21T11:25:09.129Z,87.00
2023-05-21T11:27:12.510Z,86.80
2023-05-21T11:29:15.226Z,86.90
2023-05-21T11:31:25.978Z,86.80
2023-05-21T11:33:28.093Z,86.00
2023-05-21T11:35:30.280Z,85.90
2023-05-21T11:37:34.654Z,85.90
2023-05-21T11:39:40.289Z,85.50
2023-05-21T11:41:52.663Z,85.60
2023-05-21T11:44:01.279Z,86.30
2023-05-21T11:46:03.827Z,86.40
2023-05-21T11:48:12.999Z,86.50
2023-05-21T11:50:15.858Z,85.90
2023-05-21T11:52:19.686Z,85.60
2023-05-21T11:54:21.658Z,85.00
2023-05-21T11:56:24.432Z,84.80
2023-05-21T11:58:30.988Z,84.70
2023-05-21T12:00:40.143Z,84.80
2023-05-21T12:02:46.607Z,84.80
2023-05-21T12:04:51.508Z,85.20
2023-05-21T12:06:53.330Z,85.70
2023-05-21T12:08:58.440Z,85.90
2023-05-21T12:11:01.757Z,85.60
2023-05-21T12:13:05.252Z,85.70
2023-05-21T12:15:08.303Z,84.80
2023-05-21T12:17:13.316Z,85.00
2023-05-21T12:19:18.946Z,85.30
2023-05-21T12:21:22.385Z,85.40
2023-05-21T12:23:24.790Z,85.20
2023-05-21T12:25:27.577Z,84.50
2023-05-21T12:27:31.214Z,85.50
2023-05-21T12:29:35.653Z,85.40
2023-05-21T12:31:48.165Z,84.60
2023-05-21T12:33:51.085Z,84.70
2023-05-21T12:35:53.381Z,84.60
2023-05-21T12:37:57.061Z,85.10
2023-05-21T12:40:01.304Z,84.90
2023-05-21T12:42:03.396Z,85.10
2023-05-21T12:44:08.629Z,85.00
2023-05-21T12:46:14.665Z,85.60
2023-05-21T12:48:16.757Z,85.50
2023-05-21T12:50:21.400Z,84.90
2023-05-21T12:52:23.807Z,84.70
2023-05-21T12:54:31.769Z,84.40
2023-05-21T12:56:45.381Z,84.60
2023-05-21T12:58:50.570Z,85.00
2023-05-21T13:00:55.247Z,84.90
2023-05-21T13:03:00.095Z,84.80
2023-05-21T13:05:04.160Z,84.90
2023-05-21T13:07:06.173Z,84.80
2023-05-21T13:09:08.226Z,84.10
2023-05-21T13:11:11.554Z,84.90
2023-05-21T13:13:13.549Z,84.50
2023-05-21T13:15:15.767Z,84.80
2023-05-21T13:17:17.969Z,84.60
2023-05-21T13:19:20.071Z,84.40
2023-05-21T13:21:22.108Z,84.70
2023-05-21T13:23:24.524Z,84.60
2023-05-21T13:25:30.089Z,85.20
2023-05-21T13:27:35.002Z,85.30
2023-05-21T13:29:38.120Z,84.80
2023-05-21T13:31:41.089Z,84.60
2023-05-21T13:33:43.366Z,85.40
2023-05-21T13:35:50.974Z,84.70
2023-05-21T13:37:53.163Z,83.80
2023-05-21T13:39:55.349Z,84.10
2023-05-21T13:41:57.493Z,84.60
2023-05-21T13:44:00.983Z,84.30
2023-05-21T13:46:03.708Z,83.90
2023-05-21T13:48:06.510Z,84.00
2023-05-21T13:50:09.345Z,84.00
2023-05-21T13:52:12.490Z,83.60
2023-05-21T13:54:15.720Z,83.70
2023-05-21T13:56:17.857Z,83.40
2023-05-21T13:58:19.893Z,83.30
2023-05-21T14:00:23.371Z,83.80
2023-05-21T14:02:26.017Z,83.40
2023-05-21T14:04:28.568Z,84.30
2023-05-21T14:06:31.957Z,84.10
2023-05-21T14:08:33.978Z,84.00
2023-05-21T14:10:36.620Z,83.30
2023-05-21T14:12:39.012Z,83.30
2023-05-21T14:14:42.106Z,83.00
2023-05-21T14:16:45.872Z,83.60
2023-05-21T14:18:47.920Z,83.40
2023-05-21T14:20:49.894Z,83.50
2023-05-21T14:22:52.322Z,83.50
2023-05-21T14:24:54.348Z,83.60
2023-05-21T14:26:56.453Z,83.50
2023-05-21T14:28:58.536Z,83.60
2023-05-21T14:31:00.607Z,84.40
2023-05-21T14:33:04.165Z,84.90
2023-05-21T14:35:06.749Z,85.20
2023-05-21T14:37:08.902Z,85.70
2023-05-21T14:39:11.561Z,86.30
2023-05-21T14:41:13.734Z,85.60
2023-05-21T14:43:15.875Z,84.70
2023-05-21T14:45:19.427Z,84.40
2023-05-21T14:47:21.738Z,84.30
2023-05-21T14:49:25.221Z,84.90
2023-05-21T14:51:27.289Z,84.40
2023-05-21T14:53:29.285Z,84.60
2023-05-21T14:55:34.737Z,84.40
2023-05-21T14:57:39.073Z,83.90
2023-05-21T14:59:41.655Z,83.10
2023-05-21T15:01:43.980Z,83.50
2023-05-21T15:03:46.145Z,83.80
2023-05-21T15:05:49.832Z,84.40
2023-05-21T15:07:51.963Z,84.70
2023-05-21T15:09:53.999Z,85.00
2023-05-21T15:11:55.974Z,84.70
2023-05-21T15:13:57.965Z,85.30
2023-05-21T15:16:00.006Z,85.40
2023-05-21T15:18:02.243Z,85.50
2023-05-21T15:20:05.914Z,85.30
2023-05-21T15:22:09.358Z,85.60
2023-05-21T15:24:11.613Z,85.70
2023-05-21T15:26:13.765Z,85.70
2023-05-21T15:28:15.876Z,85.80
2023-05-21T15:30:17.963Z,85.40
2023-05-21T15:32:22.606Z,85.60
2023-05-21T15:34:24.727Z,86.10
2023-05-21T15:36:27.169Z,86.30
2023-05-21T15:38:30.938Z,86.30
2023-05-21T15:40:33.277Z,86.20
2023-05-21T15:42:35.328Z,86.10
2023-05-21T15:44:37.363Z,86.30
2023-05-21T15:46:39.562Z,86.70
2023-05-21T15:48:41.557Z,86.60
2023-05-21T15:50:43.580Z,86.70
2023-05-21T15:52:45.589Z,86.30
2023-05-21T15:54:49.108Z,86.00
2023-05-21T15:56:51.199Z,85.40
2023-05-21T15:58:53.290Z,85.70
2023-05-21T16:00:55.376Z,86.40
2023-05-21T16:02:57.622Z,87.00
2023-05-21T16:04:59.678Z,87.50
2023-05-21T16:07:01.802Z,87.80
2023-05-21T16:09:04.012Z,87.90
2023-05-21T16:11:07.455Z,87.80
2023-05-21T16:13:09.552Z,87.80
2023-05-21T16:15:11.904Z,87.80
2023-05-21T16:17:13.876Z,87.70
2023-05-21T16:19:16.018Z,87.70
2023-05-21T16:21:18.175Z,87.80
2023-05-21T16:23:20.646Z,87.60
2023-05-21T16:25:23.148Z,87.80
2023-05-21T16:27:26.488Z,86.90
2023-05-21T16:29:28.635Z,86.90
2023-05-21T16:31:30.718Z,86.50
2023-05-21T16:33:32.944Z,86.70
2023-05-21T16:35:35.210Z,86.60
2023-05-21T16:37:37.450Z,86.90
2023-05-21T16:39:39.439Z,87.40
2023-05-21T16:41:43.054Z,87.60
2023-05-21T16:43:46.457Z,88.20
2023-05-21T16:45:49.141Z,88.60
2023-05-21T16:47:51.761Z,89.10
2023-05-21T16:49:55.774Z,89.70
2023-05-21T16:51:57.880Z,89.60
2023-05-21T16:54:00.069Z,90.00
2023-05-21T16:56:02.215Z,90.00
2023-05-21T16:58:05.913Z,90.10
2023-05-21T17:00:10.333Z,90.30
2023-05-21T17:02:13.561Z,90.40
2023-05-21T17:04:15.734Z,90.60
2023-05-21T17:06:18.048Z,90.50
2023-05-21T17:08:20.021Z,90.60
2023-05-21T17:10:23.973Z,90.60
2023-05-21T17:12:26.154Z,90.70
2023-05-21T17:14:34.310Z,90.80
2023-05-21T17:16:40.617Z,90.70
2023-05-21T17:18:42.750Z,90.70
2023-05-21T17:20:44.913Z,90.50
2023-05-21T17:22:47.089Z,90.70
2023-05-21T17:24:49.080Z,90.60
2023-05-21T17:26:52.440Z,90.70
2023-05-21T17:28:54.489Z,91.00
2023-05-21T17:30:56.590Z,90.90
2023-05-21T17:33:02.242Z,90.90
2023-05-21T17:35:04.768Z,91.10
2023-05-21T17:37:06.750Z,91.30
2023-05-21T17:39:08.824Z,91.40
2023-05-21T17:41:10.986Z,91.60
2023-05-21T17:43:13.008Z,91.60
2023-05-21T17:45:15.088Z,91.70
2023-05-21T17:47:17.295Z,91.80
2023-05-21T17:49:20.832Z,91.80
2023-05-21T17:51:22.905Z,91.80
2023-05-21T17:53:25.073Z,91.60
2023-05-21T17:55:27.120Z,91.50
2023-05-21T17:57:29.247Z,91.30
2023-05-21T17:59:31.288Z,91.40
2023-05-21T18:01:33.503Z,91.50
2023-05-21T18:03:35.670Z,91.70
2023-05-21T18:05:39.173Z,91.90
2023-05-21T18:07:41.738Z,92.00
2023-05-21T18:09:43.900Z,92.10
2023-05-21T18:11:46.241Z,92.30
2023-05-21T18:13:48.354Z,92.50
2023-05-21T18:15:50.435Z,92.60
2023-05-21T18:17:52.559Z,92.60
2023-05-21T18:19:54.903Z,92.70
2023-05-21T18:21:58.428Z,93.00
2023-05-21T18:24:00.576Z,93.10
2023-05-21T18:26:03.194Z,93.10
2023-05-21T18:28:05.659Z,93.20
2023-05-21T18:30:09.041Z,93.30
2023-05-21T18:32:11.566Z,93.40
2023-05-21T18:34:15.442Z,93.30
2023-05-21T18:36:17.553Z,93.40
2023-05-21T18:38:21.337Z,93.50
2023-05-21T18:40:25.032Z,93.60
2023-05-21T18:42:28.239Z,93.60
2023-05-21T18:44:32.674Z,93.70
2023-05-21T18:46:35.381Z,94.00
2023-05-21T18:48:38.801Z,94.00
2023-05-21T18:50:41.164Z,94.30
2023-05-21T18:52:43.217Z,94.30
2023-05-21T18:54:46.580Z,94.40
2023-05-21T18:56:48.548Z,94.60
2023-05-21T18:58:50.583Z,94.80
2023-05-21T19:00:52.672Z,94.80
2023-05-21T19:02:55.116Z,94.90
2023-05-21T19:04:57.258Z,94.90
2023-05-21T19:06:59.331Z,95.10
2023-05-21T19:09:01.599Z,95.20
2023-05-21T19:11:07.308Z,95.30
2023-05-21T19:13:09.755Z,95.50
2023-05-21T19:15:12.230Z,95.40
2023-05-21T19:17:14.250Z,95.40
2023-05-21T19:19:16.656Z,95.50
2023-05-21T19:21:18.709Z,95.60
2023-05-21T19:23:20.806Z,95.70
2023-05-21T19:25:23.406Z,95.80
2023-05-21T19:27:29.078Z,95.90
2023-05-21T19:29:31.552Z,95.90
2023-05-21T19:31:33.843Z,96.10
2023-05-21T19:33:36.015Z,96.10
2023-05-21T19:35:38.166Z,96.30
2023-05-21T19:37:40.363Z,96.30
2023-05-21T19:39:43.452Z,96.50
2023-05-21T19:41:45.620Z,96.60
2023-05-21T19:43:48.999Z,96.70
2023-05-21T19:45:51.037Z,96.50
2023-05-21T19:47:53.097Z,96.70
2023-05-21T19:49:56.357Z,96.70
2023-05-21T19:51:58.537Z,96.60
2023-05-21T19:54:00.652Z,96.70
2023-05-21T19:56:02.688Z,96.80
2023-05-21T19:58:04.888Z,96.90
2023-05-21T20:00:10.264Z,96.90
2023-05-21T20:02:13.244Z,96.90
2023-05-21T20:04:15.340Z,97.10
2023-05-21T20:06:19.004Z,97.10
2023-05-21T20:08:21.228Z,97.10
2023-05-21T20:10:23.269Z,97.10
2023-05-21T20:12:25.450Z,97.20
2023-05-21T20:14:27.626Z,97.30
2023-05-21T20:16:31.258Z,97.30
2023-05-21T20:18:33.339Z,97.40
2023-05-21T20:20:38.145Z,97.40
2023-05-21T20:22:40.438Z,97.30
2023-05-21T20:24:42.549Z,97.30
2023-05-21T20:26:44.985Z,97.40
2023-05-21T20:28:47.240Z,97.50
2023-05-21T20:30:54.302Z,97.60
2023-05-21T20:32:57.802Z,97.50
2023-05-21T20:35:03.448Z,97.50
2023-05-21T20:37:06.417Z,97.60
2023-05-21T20:39:09.324Z,97.60
2023-05-21T20:41:11.824Z,97.60
2023-05-21T20:43:15.112Z,97.70
2023-05-21T20:45:17.447Z,97.70
2023-05-21T20:47:20.250Z,97.80
2023-05-21T20:49:24.935Z,97.80
2023-05-21T20:51:27.404Z,98.00
2023-05-21T20:53:29.404Z,97.80
2023-05-21T20:55:35.025Z,97.80
2023-05-21T20:57:37.154Z,97.80
2023-05-21T20:59:39.840Z,97.80
2023-05-21T21:01:42.711Z,97.90
2023-05-21T21:03:47.902Z,97.80
2023-05-21T21:05:52.808Z,97.80
2023-05-21T21:07:55.860Z,97.90
2023-05-21T21:09:58.824Z,97.70
2023-05-21T21:12:06.297Z,97.90
2023-05-21T21:14:13.731Z,97.80
2023-05-21T21:16:15.813Z,97.60
2023-05-21T21:18:17.874Z,97.60
2023-05-21T21:20:20.027Z,97.60
2023-05-21T21:22:23.425Z,97.60
2023-05-21T21:24:25.519Z,97.70
2023-05-21T21:26:27.667Z,97.70
2023-05-21T21:28:29.750Z,97.70
2023-05-21T21:30:31.899Z,97.80
2023-05-21T21:32:34.099Z,97.80
2023-05-21T21:34:36.126Z,97.70
2023-05-21T21:36:38.245Z,97.60
2023-05-21T21:38:41.719Z,97.30
2023-05-21T21:40:44.879Z,97.20
2023-05-21T21:42:46.988Z,97.20
2023-05-21T21:44:49.059Z,97.30
2023-05-21T21:46:51.207Z,97.30
2023-05-21T21:48:53.428Z,97.20
2023-05-21T21:50:55.779Z,97.30
2023-05-21T21:52:57.932Z,97.20
2023-05-21T21:55:01.277Z,97.20
2023-05-21T21:57:03.895Z,97.30
2023-05-21T21:59:06.174Z,97.30
2023-05-21T22:01:08.313Z,97.10
2023-05-21T22:03:14.397Z,97.10
2023-05-21T22:05:17.053Z,97.10
2023-05-21T22:07:19.535Z,97.00
2023-05-21T22:09:22.537Z,96.90
2023-05-21T22:11:28.413Z,96.80
2023-05-21T22:13:30.546Z,96.80
2023-05-21T22:15:32.935Z,96.90
2023-05-21T22:17:35.260Z,96.80
2023-05-21T22:19:37.389Z,96.70
2023-05-21T22:21:39.681Z,96.70
2023-05-21T22:23:41.784Z,96.80
2023-05-21T22:25:43.789Z,96.90
2023-05-21T22:27:47.159Z,96.90
2023-05-21T22:29:49.112Z,97.00
2023-05-21T22:31:51.270Z,97.10
2023-05-21T22:33:53.455Z,97.00
2023-05-21T22:35:56.855Z,97.00
2023-05-21T22:37:58.936Z,96.90
2023-05-21T22:40:00.957Z,97.00
2023-05-21T22:42:03.609Z,97.20
2023-05-21T22:44:07.087Z,97.10
2023-05-21T22:46:09.155Z,97.10
2023-05-21T22:48:11.529Z,97.10
2023-05-21T22:50:13.939Z,97.10
2023-05-21T22:52:16.606Z,97.10
2023-05-21T22:54:18.625Z,96.90
2023-05-21T22:56:22.136Z,96.90
2023-05-21T22:58:24.112Z,96.90
2023-05-21T23:00:28.241Z,97.10
2023-05-21T23:02:30.290Z,96.90
2023-05-21T23:04:43.303Z,97.00
2023-05-21T23:06:48.988Z,97.10
2023-05-21T23:08:51.217Z,97.10
2023-05-21T23:10:53.372Z,97.10
2023-05-21T23:12:55.651Z,97.10
2023-05-21T23:14:57.826Z,97.10
2023-05-21T23:17:04.475Z,97.10
2023-05-21T23:19:06.536Z,97.10
2023-05-21T23:21:08.765Z,97.10
2023-05-21T23:23:11.308Z,97.10
2023-05-21T23:25:13.380Z,97.10
2023-05-21T23:27:15.627Z,97.00
2023-05-21T23:29:17.904Z,97.20
2023-05-21T23:31:20.061Z,97.10
2023-05-21T23:33:23.480Z,97.10
2023-05-21T23:35:25.714Z,97.00
2023-05-21T23:37:27.893Z,97.00
2023-05-21T23:39:30.192Z,97.10
2023-05-21T23:41:32.222Z,97.00
2023-05-21T23:43:34.602Z,97.00
2023-05-21T23:45:37.162Z,97.10
2023-05-21T23:47:39.506Z,97.00
2023-05-21T23:49:43.049Z,97.10
2023-05-21T23:51:45.143Z,97.10
2023-05-21T23:53:47.413Z,97.00
2023-05-21T23:55:49.517Z,97.00
2023-05-21T23:57:51.709Z,97.10
2023-05-21T23:59:53.794Z,97.00
